Memramcook, Canada
Current Conditions -  °F | °C
As of 1:00 AM on Sunday 23 Nov 2014 (Local Time) from CYQM Reporting Station
Snow Showers Snow Showers  
Wind Chill: 19°   Ceiling: 1500
Heat Index: 30°   Visibility: 2mi
Dew Point: 27°   Wind: 16mph
Humidity: 86%   Direction: 240°WSW
Pressure: 29.81"   Gusts: 25mph
Location:  46.01°N, 64.54°W
Report Text: CYQM 230500Z 24014G22KT 2SM -SHSN VV015 M01/M03 A2981 RMK SN8 SLP099
Loading
Personal Weather Stations






























Interactive Weather Map New forecast layout! Learn more

10-Day Weather Forecast

Advertisements
Track Severe Weather on mobile